Pere C — WDF8995 — position and weather

sailwx.info

Track history (hours):
 
Tides and Currents Weather Stations Pressure Air Temp Water Temp Dewpoint Dewpoint Depression Visibility Wind Speed Wind Dir Waves Ship Positions

Pere C

Owner: CVITANOVIC BOAT SERVICE, INC, BELLE CHASSE, LA. More information available from US FCC via Universal Licensing System and Coast Guard Vessel Documentation Center.

Last reported at 2017-Oct-31 23:03 UTC. Time now 2017-Nov-21 21:14 UTC.
Position N 29°34' W 090°34'.
Warning: this ship's position is 20 days out of date.

Length 22 m; draft 2 m.

Type: Towing. MMSI: 367500720.

Date/timePositionNaut miles runAvg speedWind from/ knotsBaromVisibWave heightAir tempDewpointWater temp
2017-Oct-31 23:03N 29°34' W 090°34'1 6.5
2017-Oct-31 22:58N 29°34' W 090°34'3 6.3
2017-Oct-31 22:30N 29°35' W 090°38'3 6.7
2017-Oct-31 22:00N 29°36' W 090°41'2 4.1
2017-Oct-31 21:30N 29°35' W 090°43'2 3.1
2017-Oct-31 21:00N 29°34' W 090°44'0 0.1
2017-Oct-31 20:30N 29°34' W 090°44'0 0.1
2017-Oct-31 20:00N 29°34' W 090°44'1 1.8
2017-Oct-31 19:30N 29°34' W 090°43'2 3.6
2017-Oct-31 19:00N 29°36' W 090°43'2 3.5
2017-Oct-31 18:29N 29°36' W 090°40'2 3.3
2017-Oct-31 17:54N 29°35' W 090°38'2 4.7
2017-Oct-31 17:30N 29°35' W 090°36'3 4.7
2017-Oct-31 16:51N 29°34' W 090°33'2 5.1
2017-Oct-31 16:30N 29°34' W 090°31'  
Track history (hours):
 
Tides and Currents Weather Stations Pressure Air Temp Water Temp Dewpoint Dewpoint Depression Visibility Wind Speed Wind Dir Waves Ship Positions

Pere C

Owner: CVITANOVIC BOAT SERVICE, INC, BELLE CHASSE, LA. More information available from US FCC via Universal Licensing System and Coast Guard Vessel Documentation Center.

Last reported at 2017-Oct-31 23:03 UTC. Time now 2017-Nov-21 21:14 UTC.
Position N 29°34' W 090°34'.
Warning: this ship's position is 20 days out of date.

Length 22 m; draft 2 m.

Type: Towing. MMSI: 367500720.

Date/timePositionNaut miles runAvg speedWind from/ knotsBaromVisibWave heightAir tempDewpointWater temp
2017-Oct-31 23:03N 29°34' W 090°34'1 6.5
2017-Oct-31 22:58N 29°34' W 090°34'3 6.3
2017-Oct-31 22:30N 29°35' W 090°38'3 6.7
2017-Oct-31 22:00N 29°36' W 090°41'2 4.1
2017-Oct-31 21:30N 29°35' W 090°43'2 3.1
2017-Oct-31 21:00N 29°34' W 090°44'0 0.1
2017-Oct-31 20:30N 29°34' W 090°44'0 0.1
2017-Oct-31 20:00N 29°34' W 090°44'1 1.8
2017-Oct-31 19:30N 29°34' W 090°43'2 3.6
2017-Oct-31 19:00N 29°36' W 090°43'2 3.5
2017-Oct-31 18:29N 29°36' W 090°40'2 3.3
2017-Oct-31 17:54N 29°35' W 090°38'2 4.7
2017-Oct-31 17:30N 29°35' W 090°36'3 4.7
2017-Oct-31 16:51N 29°34' W 090°33'2 5.1
2017-Oct-31 16:30N 29°34' W 090°31'  

Dump ship's entire track history